Portada
METAR-TAF:

METAR-TAF

Aeropuertos :

Southern Illinois Airport

Carbondale / Murphysboro, Illinois, Estados Unidos

latitud: 37-46-59N, longitud: 089-14-42W, altitud: 125 m

Observación

El informe se hizo hace 23 minutos, a las 08:38 UTC
Viento calma
Temperatura 20°C
Humedad 94%
Presión 1015 hPa
Visibilidad: 6.4 km
Cielo despejado
neblina

METAR: KMDH 060838Z AUTO 00000KT 4SM BR CLR 20/19 A2996 RMK AO2 T02000194

Hora: 04:01 (09:01 UTC)


TAF: falta

Observaciones y pronósticos meteorológicos de más de 4000 aeropuertos (mensajes METAR y TAF).

Los puntos amarillos y rojos representan las estaciones disponibles.

Ponga el ratón en el punto deseado para ver el nombre de la estación.

Haga clic para ver las observaciones y los pronósticos meteorológicos.

Para cambiar el mapa : haga clic en los botones verdes con una cruz de color negro para hacer un zoom, en el botón verde con un guión para alejar o en las flechas verdes para mapas adyacentes.


METAR-TAF: